createdAt,value
2017-12-26T00:02:22.879Z,100619.47
2017-12-26T00:04:50.466Z,100617.11
2017-12-26T00:07:18.011Z,100614.36
2017-12-26T00:09:45.643Z,100614.83
2017-12-26T00:12:13.222Z,100615.66
2017-12-26T00:14:40.781Z,100614.66
2017-12-26T00:17:08.399Z,100617.44
2017-12-26T00:19:35.963Z,100619.44
2017-12-26T00:22:03.627Z,100624.04
2017-12-26T00:24:31.247Z,100623.86
2017-12-26T00:26:58.821Z,100619.55
2017-12-26T00:29:26.391Z,100623.55
2017-12-26T00:31:54.037Z,100624.05
2017-12-26T00:34:21.636Z,100624.60
2017-12-26T00:36:49.223Z,100623.79
2017-12-26T00:39:16.815Z,100619.34
2017-12-26T00:41:44.395Z,100616.24
2017-12-26T00:44:11.960Z,100621.71
2017-12-26T00:46:39.559Z,100619.38
2017-12-26T00:49:07.124Z,100606.36
2017-12-26T00:51:34.713Z,100619.27
2017-12-26T00:54:02.338Z,100618.94
2017-12-26T00:56:29.976Z,100614.98
2017-12-26T00:58:57.588Z,100612.00
2017-12-26T01:01:25.202Z,100605.90
2017-12-26T01:03:52.863Z,100605.00
2017-12-26T01:06:20.476Z,100608.75
2017-12-26T01:08:48.065Z,100604.95
2017-12-26T01:11:15.694Z,100603.25
2017-12-26T01:13:43.294Z,100606.80
2017-12-26T01:16:10.859Z,100599.68
2017-12-26T01:18:38.478Z,100599.66
2017-12-26T01:21:06.053Z,100598.34
2017-12-26T01:23:33.629Z,100599.48
2017-12-26T01:26:01.231Z,100591.59
2017-12-26T01:28:28.800Z,100590.22
2017-12-26T01:30:56.411Z,100592.77
2017-12-26T01:33:24.540Z,100595.31
2017-12-26T01:35:52.130Z,100590.89
2017-12-26T01:38:19.706Z,100587.69
2017-12-26T01:40:47.346Z,100583.55
2017-12-26T01:43:14.960Z,100591.08
2017-12-26T01:45:42.534Z,100581.97
2017-12-26T01:48:10.372Z,100581.33
2017-12-26T01:50:37.959Z,100573.66
2017-12-26T01:53:05.574Z,100567.98
2017-12-26T01:55:33.205Z,100568.94
2017-12-26T01:58:00.790Z,100565.06
2017-12-26T02:00:28.391Z,100570.36
2017-12-26T02:02:55.994Z,100559.69
2017-12-26T02:05:24.498Z,100570.49
2017-12-26T02:07:52.201Z,100563.08
2017-12-26T02:10:19.828Z,100555.33
2017-12-26T02:12:47.408Z,100551.66
2017-12-26T02:15:15.066Z,100545.09
2017-12-26T02:17:42.700Z,100543.28
2017-12-26T02:20:10.410Z,100542.84
2017-12-26T02:22:37.994Z,100539.90
2017-12-26T02:25:05.614Z,100534.16
2017-12-26T02:27:33.200Z,100533.23
2017-12-26T02:30:00.792Z,100529.42
2017-12-26T02:32:28.419Z,100525.16
2017-12-26T02:34:56.006Z,100519.69
2017-12-26T02:37:23.602Z,100516.16
2017-12-26T02:39:51.198Z,100514.06
2017-12-26T02:42:18.771Z,100522.98
2017-12-26T02:44:46.342Z,100512.89
2017-12-26T02:47:13.969Z,100516.70
2017-12-26T02:49:41.541Z,100491.19
2017-12-26T02:52:09.145Z,100510.47
2017-12-26T02:54:36.791Z,100503.69
2017-12-26T02:57:04.356Z,100503.64
2017-12-26T02:59:31.926Z,100506.88
2017-12-26T03:01:59.538Z,100503.76
2017-12-26T03:04:27.099Z,100506.03
2017-12-26T03:06:54.666Z,100502.86
2017-12-26T03:09:22.286Z,100501.84
2017-12-26T03:11:49.865Z,100503.77
2017-12-26T03:14:17.435Z,100495.95
2017-12-26T03:16:45.066Z,100495.41
2017-12-26T03:19:12.645Z,100491.94
2017-12-26T03:21:40.216Z,100493.31
2017-12-26T03:24:07.867Z,100489.84
2017-12-26T03:26:35.450Z,100485.55
2017-12-26T03:29:03.037Z,100487.23
2017-12-26T03:31:30.658Z,100483.34
2017-12-26T03:33:58.230Z,100480.88
2017-12-26T03:36:25.971Z,100476.30
2017-12-26T03:38:53.601Z,100476.66
2017-12-26T03:41:21.212Z,100478.81
2017-12-26T03:43:48.809Z,100471.30
2017-12-26T03:46:16.463Z,100473.39
2017-12-26T03:48:44.053Z,100478.30
2017-12-26T03:51:11.630Z,100472.28
2017-12-26T03:53:39.247Z,100469.81
2017-12-26T03:56:06.853Z,100466.36
2017-12-26T03:58:34.443Z,100462.12
2017-12-26T04:01:02.084Z,100467.64
2017-12-26T04:03:29.699Z,100461.97
2017-12-26T04:05:57.317Z,100462.55
2017-12-26T04:08:24.982Z,100461.55
2017-12-26T04:10:52.576Z,100455.62
2017-12-26T04:13:20.168Z,100459.21
2017-12-26T04:15:47.786Z,100459.02
2017-12-26T04:18:15.402Z,100452.86
2017-12-26T04:20:42.974Z,100455.62
2017-12-26T04:23:10.581Z,100452.45
2017-12-26T04:25:38.161Z,100451.03
2017-12-26T04:28:05.760Z,100454.24
2017-12-26T04:30:33.374Z,100453.77
2017-12-26T04:33:00.948Z,100450.08
2017-12-26T04:35:28.537Z,100439.56
2017-12-26T04:37:56.182Z,100442.06
2017-12-26T04:40:23.774Z,100443.86
2017-12-26T04:42:51.349Z,100441.17
2017-12-26T04:45:18.970Z,100441.43
2017-12-26T04:47:46.559Z,100438.67
2017-12-26T04:50:14.132Z,100438.73
2017-12-26T04:52:41.763Z,100432.11
2017-12-26T04:55:09.353Z,100433.87
2017-12-26T04:57:36.996Z,100428.64
2017-12-26T05:00:04.619Z,100425.86
2017-12-26T05:02:32.332Z,100421.31
2017-12-26T05:04:59.902Z,100429.52
2017-12-26T05:07:27.538Z,100416.60
2017-12-26T05:09:55.120Z,100422.49
2017-12-26T05:12:22.704Z,100422.36
2017-12-26T05:14:50.384Z,100421.43
2017-12-26T05:17:17.978Z,100426.14
2017-12-26T05:19:45.553Z,100421.17
2017-12-26T05:22:13.163Z,100420.20
2017-12-26T05:24:40.759Z,100419.50
2017-12-26T05:27:08.345Z,100423.13
2017-12-26T05:29:35.965Z,100419.93
2017-12-26T05:32:03.542Z,100416.25
2017-12-26T05:34:31.124Z,100420.73
2017-12-26T05:36:58.751Z,100414.27
2017-12-26T05:39:26.338Z,100420.25
2017-12-26T05:41:53.920Z,100412.79
2017-12-26T05:44:21.527Z,100412.73
2017-12-26T05:46:49.109Z,100403.59
2017-12-26T05:49:16.689Z,100403.79
2017-12-26T05:51:44.298Z,100399.92
2017-12-26T05:54:11.891Z,100393.70
2017-12-26T05:56:39.682Z,100406.55
2017-12-26T05:59:07.321Z,100398.60
2017-12-26T06:01:34.896Z,100388.70
2017-12-26T06:04:02.486Z,100406.55
2017-12-26T06:06:30.117Z,100401.23
2017-12-26T06:08:57.709Z,100403.95
2017-12-26T06:11:25.307Z,100408.56
2017-12-26T06:13:53.082Z,100398.76
2017-12-26T06:16:20.664Z,100397.86
2017-12-26T06:18:48.256Z,100391.42
2017-12-26T06:21:15.844Z,100389.56
2017-12-26T06:23:43.424Z,100390.52
2017-12-26T06:26:10.990Z,100387.14
2017-12-26T06:28:38.601Z,100380.73
2017-12-26T06:31:06.156Z,100382.94
2017-12-26T06:33:33.729Z,100381.89
2017-12-26T06:36:01.350Z,100387.80
2017-12-26T06:38:28.910Z,100375.83
2017-12-26T06:40:56.469Z,100373.64
2017-12-26T06:43:24.089Z,100377.41
2017-12-26T06:45:51.669Z,100372.78
2017-12-26T06:48:19.226Z,100364.51
2017-12-26T06:50:46.828Z,100359.41
2017-12-26T06:53:14.425Z,100362.08
2017-12-26T06:55:41.995Z,100353.00
2017-12-26T06:58:09.590Z,100348.95
2017-12-26T07:00:37.150Z,100351.80
2017-12-26T07:03:04.738Z,100347.69
2017-12-26T07:05:32.325Z,100353.44
2017-12-26T07:07:59.897Z,100355.91
2017-12-26T07:10:27.466Z,100345.54
2017-12-26T07:12:55.128Z,100348.23
2017-12-26T07:15:22.700Z,100350.96
2017-12-26T07:17:50.259Z,100340.03
2017-12-26T07:20:23.261Z,100348.07
2017-12-26T07:22:50.827Z,100339.16
2017-12-26T07:25:18.385Z,100344.39
2017-12-26T07:27:46.024Z,100333.44
2017-12-26T07:30:13.592Z,100336.35
2017-12-26T07:32:41.171Z,100337.28
2017-12-26T07:35:08.773Z,100333.25
2017-12-26T07:37:36.325Z,100339.05
2017-12-26T07:40:03.907Z,100335.56
2017-12-26T07:42:31.519Z,100333.61
2017-12-26T07:44:59.126Z,100332.98
2017-12-26T07:47:26.705Z,100333.85
2017-12-26T07:49:54.312Z,100332.51
2017-12-26T07:52:21.877Z,100323.16
2017-12-26T07:54:49.427Z,100323.06
2017-12-26T07:57:17.046Z,100330.22
2017-12-26T07:59:44.591Z,100323.09
2017-12-26T08:02:12.158Z,100323.64
2017-12-26T08:04:39.770Z,100321.30
2017-12-26T08:07:07.337Z,100316.05
2017-12-26T08:09:34.896Z,100311.17
2017-12-26T08:12:02.508Z,100312.55
2017-12-26T08:14:30.170Z,100306.80
2017-12-26T08:16:57.752Z,100306.44
2017-12-26T08:19:25.353Z,100302.73
2017-12-26T08:21:52.913Z,100302.97
2017-12-26T08:24:20.480Z,100297.15
2017-12-26T08:26:48.102Z,100293.00
2017-12-26T08:29:15.657Z,100291.58
2017-12-26T08:31:43.227Z,100289.68
2017-12-26T08:34:10.826Z,100285.87
2017-12-26T08:36:38.406Z,100289.45
2017-12-26T08:39:05.982Z,100285.42
2017-12-26T08:41:33.580Z,100279.80
2017-12-26T08:44:01.157Z,100277.13
2017-12-26T08:46:28.732Z,100271.47
2017-12-26T08:48:56.342Z,100269.42
2017-12-26T08:51:23.915Z,100258.76
2017-12-26T08:53:51.487Z,100254.74
2017-12-26T08:56:19.092Z,100246.77
2017-12-26T08:58:46.664Z,100249.42
2017-12-26T09:01:14.231Z,100246.30
2017-12-26T09:03:41.858Z,100249.08
2017-12-26T09:06:09.441Z,100236.41
2017-12-26T09:08:37.009Z,100226.25
2017-12-26T09:11:04.614Z,100230.20
2017-12-26T09:13:32.178Z,100224.66
2017-12-26T09:15:59.750Z,100221.08
2017-12-26T09:18:27.365Z,100218.27
2017-12-26T09:20:54.935Z,100220.92
2017-12-26T09:23:22.495Z,100216.74
2017-12-26T09:25:50.106Z,100212.75
2017-12-26T09:28:17.658Z,100202.25
2017-12-26T09:30:45.548Z,100202.16
2017-12-26T09:33:14.005Z,100195.12
2017-12-26T09:35:41.935Z,100180.38
2017-12-26T09:38:11.211Z,100181.00
2017-12-26T09:40:39.579Z,100178.78
2017-12-26T09:43:08.112Z,100165.62
2017-12-26T09:45:36.742Z,100161.75
2017-12-26T09:48:04.583Z,100157.17
2017-12-26T09:50:32.159Z,100148.02
2017-12-26T09:52:59.746Z,100141.96
2017-12-26T09:55:27.375Z,100141.87
2017-12-26T09:57:54.950Z,100137.01
2017-12-26T10:00:22.529Z,100133.78
2017-12-26T10:02:50.127Z,100123.54
2017-12-26T10:05:17.706Z,100115.78
2017-12-26T10:07:45.271Z,100113.20
2017-12-26T10:10:12.880Z,100102.33
2017-12-26T10:12:40.443Z,100093.29
2017-12-26T10:15:08.009Z,100089.86
2017-12-26T10:17:35.621Z,100080.91
2017-12-26T10:20:03.176Z,100076.27
2017-12-26T10:22:30.740Z,100069.31
2017-12-26T10:24:58.352Z,100059.58
2017-12-26T10:27:25.912Z,100056.36
2017-12-26T10:29:53.494Z,100058.05
2017-12-26T10:32:21.108Z,100049.80
2017-12-26T10:34:48.667Z,100037.59
2017-12-26T10:37:16.240Z,100037.34
2017-12-26T10:39:43.842Z,100033.47
2017-12-26T10:42:11.414Z,100031.95
2017-12-26T10:44:38.993Z,100024.27
2017-12-26T10:47:06.610Z,100014.94
2017-12-26T10:49:34.185Z,100009.57
2017-12-26T10:52:01.762Z,100006.02
2017-12-26T10:54:29.351Z,100003.45
2017-12-26T10:56:56.913Z,99999.45
2017-12-26T10:59:24.463Z,99994.19
2017-12-26T11:01:52.068Z,99989.53
2017-12-26T11:04:19.633Z,99987.22
2017-12-26T11:06:47.199Z,99982.70
2017-12-26T11:09:14.809Z,99985.84
2017-12-26T11:11:42.389Z,99988.05
2017-12-26T11:14:10.020Z,99990.02
2017-12-26T11:16:37.616Z,99978.16
2017-12-26T11:19:05.174Z,99982.39
2017-12-26T11:21:32.734Z,99968.15
2017-12-26T11:24:00.328Z,99960.91
2017-12-26T11:26:27.900Z,99956.09
2017-12-26T11:28:55.462Z,99944.72
2017-12-26T11:31:23.250Z,99939.73
2017-12-26T11:33:50.836Z,99930.73
2017-12-26T11:36:18.400Z,99929.20
2017-12-26T11:38:45.992Z,99917.00
2017-12-26T11:41:13.544Z,99916.36
2017-12-26T11:43:41.119Z,99910.52
2017-12-26T11:46:08.743Z,99907.53
2017-12-26T11:48:36.305Z,99903.13
2017-12-26T11:51:03.882Z,99898.72
2017-12-26T11:53:31.506Z,99897.70
2017-12-26T11:55:59.078Z,99902.78
2017-12-26T11:58:26.636Z,99897.72
2017-12-26T12:00:54.252Z,99893.98
2017-12-26T12:03:21.795Z,99891.06
2017-12-26T12:05:49.386Z,99884.13
2017-12-26T12:08:16.971Z,99884.77
2017-12-26T12:10:44.531Z,99879.59
2017-12-26T12:13:12.098Z,99878.19
2017-12-26T12:15:39.702Z,99876.04
2017-12-26T12:18:07.295Z,99874.10
2017-12-26T12:20:34.867Z,99874.34
2017-12-26T12:23:02.450Z,99866.34
2017-12-26T12:25:30.041Z,99862.55
2017-12-26T12:27:57.665Z,99863.77
2017-12-26T12:30:25.267Z,99853.12
2017-12-26T12:32:52.839Z,99849.20
2017-12-26T12:35:20.558Z,99846.86
2017-12-26T12:37:48.164Z,99845.52
2017-12-26T12:40:15.743Z,99846.48
2017-12-26T12:42:43.313Z,99849.71
2017-12-26T12:45:10.915Z,99848.07
2017-12-26T12:47:38.494Z,99850.99
2017-12-26T12:50:06.060Z,99841.19
2017-12-26T12:52:33.661Z,99846.44
2017-12-26T12:55:01.233Z,99845.30
2017-12-26T12:57:28.802Z,99835.56
2017-12-26T12:59:56.377Z,99837.59
2017-12-26T13:02:23.942Z,99833.14
2017-12-26T13:04:51.514Z,99833.52
2017-12-26T13:07:19.119Z,99828.95
2017-12-26T13:09:46.674Z,99831.60
2017-12-26T13:12:14.277Z,99819.02
2017-12-26T13:14:41.875Z,99820.58
2017-12-26T13:17:09.437Z,99825.04
2017-12-26T13:19:37.004Z,99816.25
2017-12-26T13:22:04.587Z,99822.31
2017-12-26T13:24:32.231Z,99824.66
2017-12-26T13:26:59.783Z,99824.11
2017-12-26T13:29:27.392Z,99816.25
2017-12-26T13:31:54.940Z,99819.55
2017-12-26T13:34:22.521Z,99816.21
2017-12-26T13:36:50.163Z,99814.06
2017-12-26T13:39:17.698Z,99807.14
2017-12-26T13:41:45.257Z,99809.11
2017-12-26T13:44:12.862Z,99810.41
2017-12-26T13:46:40.419Z,99806.26
2017-12-26T13:49:07.996Z,99812.77
2017-12-26T13:51:35.618Z,99808.68
2017-12-26T13:54:03.198Z,99804.80
2017-12-26T13:56:30.777Z,99788.81
2017-12-26T13:58:58.379Z,99797.28
2017-12-26T14:01:25.949Z,99792.83
2017-12-26T14:03:53.503Z,99795.92
2017-12-26T14:06:21.105Z,99805.73
2017-12-26T14:08:48.680Z,99814.67
2017-12-26T14:11:16.289Z,99805.64
2017-12-26T14:13:44.018Z,99809.70
2017-12-26T14:16:11.585Z,99811.64
2017-12-26T14:18:39.142Z,99813.39
2017-12-26T14:21:06.739Z,99812.00
2017-12-26T14:23:34.284Z,99808.80
2017-12-26T14:26:01.858Z,99809.31
2017-12-26T14:28:29.505Z,99813.80
2017-12-26T14:30:57.089Z,99811.06
2017-12-26T14:33:24.693Z,99812.27
2017-12-26T14:35:52.291Z,99808.42
2017-12-26T14:38:19.870Z,99816.05
2017-12-26T14:40:47.512Z,99813.55
2017-12-26T14:43:15.111Z,99813.22
2017-12-26T14:45:42.685Z,99813.07
2017-12-26T14:48:10.270Z,99807.25
2017-12-26T14:50:37.874Z,99809.45
2017-12-26T14:53:05.824Z,99808.81
2017-12-26T14:55:33.480Z,99806.92
2017-12-26T14:58:01.072Z,99811.36
2017-12-26T15:00:28.657Z,99806.54
2017-12-26T15:02:56.236Z,99801.86
2017-12-26T15:05:23.828Z,99805.02
2017-12-26T15:07:51.404Z,99803.64
2017-12-26T15:10:18.970Z,99798.31
2017-12-26T15:12:46.572Z,99804.59
2017-12-26T15:15:14.127Z,99805.61
2017-12-26T15:17:41.721Z,99807.76
2017-12-26T15:20:09.343Z,99809.89
2017-12-26T15:22:36.939Z,99812.22
2017-12-26T15:25:04.545Z,99815.78
2017-12-26T15:27:32.175Z,99816.63
2017-12-26T15:29:59.738Z,99809.47
2017-12-26T15:32:27.313Z,99813.61
2017-12-26T15:34:54.922Z,99815.39
2017-12-26T15:37:22.491Z,99823.80
2017-12-26T15:39:50.044Z,99813.50
2017-12-26T15:42:17.638Z,99816.55
2017-12-26T15:44:45.213Z,99816.30
2017-12-26T15:47:12.767Z,99814.20
2017-12-26T15:49:40.369Z,99817.97
2017-12-26T15:52:07.917Z,99817.80
2017-12-26T15:54:35.531Z,99823.75
2017-12-26T15:57:03.149Z,99820.83
2017-12-26T15:59:30.742Z,99823.70
2017-12-26T16:01:58.281Z,99822.81
2017-12-26T16:04:25.887Z,99821.95
2017-12-26T16:06:53.478Z,99824.00
2017-12-26T16:09:21.143Z,99815.55
2017-12-26T16:11:48.756Z,99820.31
2017-12-26T16:14:16.329Z,99830.14
2017-12-26T16:16:43.885Z,99825.73
2017-12-26T16:19:11.480Z,99819.56
2017-12-26T16:21:39.042Z,99828.35
2017-12-26T16:24:06.676Z,99829.23
2017-12-26T16:26:34.289Z,99835.82
2017-12-26T16:29:01.856Z,99831.34
2017-12-26T16:31:29.415Z,99824.20
2017-12-26T16:33:57.012Z,99831.31
2017-12-26T16:36:24.565Z,99829.03
2017-12-26T16:38:52.129Z,99838.89
2017-12-26T16:41:19.753Z,99840.64
2017-12-26T16:43:47.333Z,99840.42
2017-12-26T16:46:14.910Z,99838.73
2017-12-26T16:48:42.522Z,99840.16
2017-12-26T16:51:10.079Z,99838.92
2017-12-26T16:53:37.644Z,99841.83
2017-12-26T16:56:05.246Z,99843.34
2017-12-26T16:58:32.808Z,99843.72
2017-12-26T17:01:00.374Z,99841.56
2017-12-26T17:03:28.149Z,99839.95
2017-12-26T17:05:55.728Z,99845.78
2017-12-26T17:08:23.305Z,99841.81
2017-12-26T17:10:51.011Z,99835.98
2017-12-26T17:13:18.648Z,99826.35
2017-12-26T17:15:46.208Z,99828.71
2017-12-26T17:18:13.829Z,99826.75
2017-12-26T17:20:41.404Z,99832.91
2017-12-26T17:23:08.981Z,99833.30
2017-12-26T17:25:36.637Z,99835.23
2017-12-26T17:28:04.237Z,99836.06
2017-12-26T17:30:31.807Z,99834.93
2017-12-26T17:32:59.401Z,99835.02
2017-12-26T17:35:26.951Z,99835.03
2017-12-26T17:37:54.518Z,99828.50
2017-12-26T17:40:22.094Z,99829.80
2017-12-26T17:42:49.662Z,99831.07
2017-12-26T17:45:17.473Z,99832.30
2017-12-26T17:47:45.134Z,99826.03
2017-12-26T17:50:12.778Z,99827.19
2017-12-26T17:52:40.342Z,99833.22
2017-12-26T17:55:07.955Z,99822.75
2017-12-26T17:57:35.507Z,99826.19
2017-12-26T18:00:03.115Z,99830.75
2017-12-26T18:02:30.721Z,99821.54
2017-12-26T18:04:58.285Z,99817.89
2017-12-26T18:07:25.868Z,99823.17
2017-12-26T18:09:53.578Z,99818.34
2017-12-26T18:12:21.152Z,99816.23
2017-12-26T18:14:48.849Z,99814.50
2017-12-26T18:17:16.436Z,99817.53
2017-12-26T18:19:44.038Z,99820.02
2017-12-26T18:22:11.630Z,99820.89
2017-12-26T18:24:39.237Z,99821.36
2017-12-26T18:27:06.826Z,99808.98
2017-12-26T18:29:34.415Z,99810.64
2017-12-26T18:32:02.216Z,99815.55
2017-12-26T18:34:29.765Z,99817.31
2017-12-26T18:36:57.340Z,99812.92
2017-12-26T18:39:24.957Z,99810.61
2017-12-26T18:41:52.544Z,99803.20
2017-12-26T18:44:20.114Z,99803.20
2017-12-26T18:46:47.730Z,99801.83
2017-12-26T18:49:15.312Z,99798.84
2017-12-26T18:51:42.877Z,99803.84
2017-12-26T18:54:10.484Z,99807.70
2017-12-26T18:56:38.056Z,99805.88
2017-12-26T18:59:05.619Z,99802.98
2017-12-26T19:01:33.216Z,99805.17
2017-12-26T19:04:00.772Z,99811.61
2017-12-26T19:06:28.337Z,99802.39
2017-12-26T19:08:55.941Z,99801.52
2017-12-26T19:11:23.496Z,99802.19
2017-12-26T19:13:51.135Z,99798.05
2017-12-26T19:16:18.754Z,99802.13
2017-12-26T19:18:46.351Z,99794.23
2017-12-26T19:21:13.905Z,99800.22
2017-12-26T19:23:41.542Z,99796.63
2017-12-26T19:26:09.115Z,99807.02
2017-12-26T19:28:36.677Z,99804.84
2017-12-26T19:31:04.284Z,99801.00
2017-12-26T19:33:31.834Z,99802.91
2017-12-26T19:35:59.401Z,99803.92
2017-12-26T19:38:26.993Z,99802.16
2017-12-26T19:40:54.560Z,99810.78
2017-12-26T19:43:22.130Z,99802.01
2017-12-26T19:45:49.744Z,99816.91
2017-12-26T19:48:17.312Z,99815.59
2017-12-26T19:50:45.012Z,99810.20
2017-12-26T19:53:12.787Z,99804.58
2017-12-26T19:55:40.338Z,99798.39
2017-12-26T19:58:07.910Z,99799.11
2017-12-26T20:00:35.514Z,99802.42
2017-12-26T20:03:03.069Z,99800.92
2017-12-26T20:05:30.651Z,99803.91
2017-12-26T20:07:58.318Z,99809.03
2017-12-26T20:10:25.914Z,99808.53
2017-12-26T20:12:53.478Z,99807.64
2017-12-26T20:15:21.044Z,99802.52
2017-12-26T20:17:48.653Z,99799.52
2017-12-26T20:20:16.223Z,99804.00
2017-12-26T20:22:43.787Z,99804.41
2017-12-26T20:25:11.406Z,99799.94
2017-12-26T20:27:39.018Z,99795.16
2017-12-26T20:30:06.593Z,99801.84
2017-12-26T20:32:34.239Z,99797.30
2017-12-26T20:35:01.783Z,99795.66
2017-12-26T20:37:29.332Z,99794.80
2017-12-26T20:39:56.919Z,99800.20
2017-12-26T20:42:24.484Z,99808.10
2017-12-26T20:44:52.058Z,99795.84
2017-12-26T20:47:19.665Z,99793.91
2017-12-26T20:49:47.214Z,99794.23
2017-12-26T20:52:14.770Z,99798.82
2017-12-26T20:54:42.366Z,99799.36
2017-12-26T20:57:09.915Z,99800.02
2017-12-26T20:59:37.471Z,99800.02
2017-12-26T21:02:05.077Z,99803.31
2017-12-26T21:04:32.637Z,99800.70
2017-12-26T21:07:00.214Z,99795.95
2017-12-26T21:09:28.265Z,99789.71
2017-12-26T21:11:55.834Z,99789.86
2017-12-26T21:14:23.422Z,99789.86
2017-12-26T21:16:56.629Z,99778.95
2017-12-26T21:19:24.292Z,99790.69
2017-12-26T21:21:51.879Z,99788.17
2017-12-26T21:24:19.648Z,99786.08
2017-12-26T21:26:47.213Z,99790.34
2017-12-26T21:29:14.762Z,99795.05
2017-12-26T21:31:42.369Z,99795.55
2017-12-26T21:34:09.946Z,99790.60
2017-12-26T21:36:37.531Z,99792.60
2017-12-26T21:39:05.179Z,99791.53
2017-12-26T21:41:32.764Z,99791.83
2017-12-26T21:44:00.383Z,99797.42
2017-12-26T21:46:28.025Z,99786.60
2017-12-26T21:48:55.584Z,99796.42
2017-12-26T21:51:23.161Z,99795.97
2017-12-26T21:53:50.813Z,99792.92
2017-12-26T21:56:18.395Z,99803.50
2017-12-26T21:58:45.967Z,99799.98
2017-12-26T22:01:13.566Z,99799.73
2017-12-26T22:03:42.562Z,99791.19
2017-12-26T22:06:12.426Z,99790.65
2017-12-26T22:08:40.833Z,99786.19
2017-12-26T22:11:12.639Z,99786.49
2017-12-26T22:13:43.485Z,99787.37
2017-12-26T22:16:14.985Z,99786.33
2017-12-26T22:18:42.887Z,99786.88
2017-12-26T22:21:10.469Z,99787.94
2017-12-26T22:23:38.061Z,99781.83
2017-12-26T22:26:05.655Z,99784.43
2017-12-26T22:28:33.257Z,99786.63
2017-12-26T22:31:00.866Z,99778.62
2017-12-26T22:33:29.173Z,99774.53
2017-12-26T22:35:56.740Z,99772.19
2017-12-26T22:38:24.293Z,99774.28
2017-12-26T22:40:51.876Z,99772.63
2017-12-26T22:43:19.437Z,99775.28
2017-12-26T22:45:47.014Z,99771.52
2017-12-26T22:48:14.598Z,99775.13
2017-12-26T22:50:42.160Z,99772.02
2017-12-26T22:53:09.735Z,99772.47
2017-12-26T22:55:37.396Z,99769.97
2017-12-26T22:58:04.973Z,99766.62
2017-12-26T23:00:32.531Z,99772.01
2017-12-26T23:03:00.133Z,99764.67
2017-12-26T23:05:28.975Z,99768.30
2017-12-26T23:07:56.641Z,99770.92
2017-12-26T23:10:28.164Z,99768.32
2017-12-26T23:12:59.099Z,99769.88
2017-12-26T23:15:35.063Z,99767.47
2017-12-26T23:18:11.301Z,99767.73
2017-12-26T23:20:47.268Z,99768.43
2017-12-26T23:23:22.954Z,99770.66
2017-12-26T23:25:56.248Z,99765.38
2017-12-26T23:28:29.470Z,99758.50
2017-12-26T23:31:02.550Z,99757.31
2017-12-26T23:33:35.787Z,99756.65
2017-12-26T23:36:09.075Z,99755.25
2017-12-26T23:38:42.088Z,99752.61
2017-12-26T23:41:15.319Z,99752.36
2017-12-26T23:43:48.425Z,99755.33
2017-12-26T23:46:21.560Z,99751.38
2017-12-26T23:48:54.707Z,99747.66
2017-12-26T23:51:27.797Z,99745.31
2017-12-26T23:54:00.768Z,99744.47
2017-12-26T23:56:34.015Z,99751.91
2017-12-26T23:59:07.204Z,99755.59
